SWR77 MUHA-TNCC
Flight info
| Callsign | SWR77 |
|---|---|
| Flight time | N/A |
| Altitude | 39000 |
| Route | DCT/24 UCL UL332 AMBIN ABIN1B |
| Aircraft | A333/H-SDE3GHIJ2J3J5M1RVWXY/LB2D1 |
Departure
| Time | 2026-05-03 20:45 |
|---|---|
| Airport | José Martí International Airport (MUHA) |
Arrival
| Time | N/A |
|---|---|
| Airport | Hato International Airport (TNCC) |
| Time | Latitude | Longitude | Altitude | Speed | Heading |
|---|---|---|---|---|---|
| 2026-05-03 20:15 | 22.99565 | -82.40957 | 227 ft | 0 kts | 326° |
| 2026-05-03 20:34 | 22.99555 | -82.40949 | 227 ft | 4 kts | 322° |
| 2026-05-03 20:35 | 22.99534 | -82.40930 | 227 ft | 4 kts | 315° |
| 2026-05-03 20:35 | 22.99516 | -82.40908 | 227 ft | 4 kts | 307° |
| 2026-05-03 20:35 | 22.99501 | -82.40884 | 227 ft | 4 kts | 298° |
| 2026-05-03 20:35 | 22.99489 | -82.40857 | 227 ft | 4 kts | 289° |
| 2026-05-03 20:36 | 22.99482 | -82.40829 | 227 ft | 4 kts | 278° |
| 2026-05-03 20:36 | 22.99480 | -82.40800 | 227 ft | 4 kts | 261° |
| 2026-05-03 20:36 | 22.99486 | -82.40779 | 227 ft | 1 kts | 234° |
| 2026-05-03 20:36 | 22.99487 | -82.40778 | 227 ft | 0 kts | 234° |
| 2026-05-03 20:39 | 22.99481 | -82.40786 | 227 ft | 7 kts | 234° |
| 2026-05-03 20:39 | 22.99430 | -82.40862 | 227 ft | 14 kts | 234° |
| 2026-05-03 20:40 | 22.99378 | -82.40937 | 227 ft | 11 kts | 227° |
| 2026-05-03 20:40 | 22.99315 | -82.40934 | 227 ft | 12 kts | 145° |
| 2026-05-03 20:40 | 22.99242 | -82.40878 | 227 ft | 14 kts | 145° |
| 2026-05-03 20:40 | 22.99177 | -82.40859 | 227 ft | 12 kts | 204° |
| 2026-05-03 20:41 | 22.99112 | -82.40938 | 227 ft | 15 kts | 234° |
| 2026-05-03 20:41 | 22.99041 | -82.41047 | 227 ft | 22 kts | 235° |
| 2026-05-03 20:41 | 22.98948 | -82.41195 | 227 ft | 24 kts | 234° |
| 2026-05-03 20:41 | 22.98850 | -82.41341 | 227 ft | 24 kts | 236° |
| 2026-05-03 20:42 | 22.98765 | -82.41478 | 227 ft | 22 kts | 237° |
| 2026-05-03 20:42 | 22.98673 | -82.41622 | 227 ft | 23 kts | 234° |
| 2026-05-03 20:42 | 22.98578 | -82.41763 | 227 ft | 23 kts | 233° |
| 2026-05-03 20:42 | 22.98484 | -82.41903 | 227 ft | 23 kts | 234° |
| 2026-05-03 20:43 | 22.98393 | -82.42042 | 227 ft | 22 kts | 232° |
| 2026-05-03 20:43 | 22.98300 | -82.42176 | 227 ft | 22 kts | 233° |
| 2026-05-03 20:43 | 22.98210 | -82.42311 | 227 ft | 20 kts | 235° |
| 2026-05-03 20:43 | 22.98134 | -82.42436 | 227 ft | 20 kts | 237° |
| 2026-05-03 20:44 | 22.98063 | -82.42546 | 227 ft | 16 kts | 230° |
| 2026-05-03 20:44 | 22.97961 | -82.42549 | 227 ft | 18 kts | 148° |
| 2026-05-03 20:44 | 22.97903 | -82.42453 | 227 ft | 16 kts | 75° |
| 2026-05-03 20:44 | 22.98020 | -82.42258 | 227 ft | 56 kts | 52° |
| 2026-05-03 20:45 | 22.98360 | -82.41750 | 227 ft | 109 kts | 54° |
| 2026-05-03 20:45 | 22.98906 | -82.40927 | 230 ft | 159 kts | 52° |
| 2026-05-03 20:45 | 22.99634 | -82.39839 | 356 ft | 192 kts | 52° |
| 2026-05-03 20:45 | 23.00455 | -82.38620 | 858 ft | 207 kts | 52° |
| 2026-05-03 20:46 | 23.01346 | -82.37302 | 1364 ft | 225 kts | 52° |
| 2026-05-03 20:46 | 23.02124 | -82.35821 | 2169 ft | 225 kts | 66° |
| 2026-05-03 20:46 | 23.02708 | -82.34227 | 2842 ft | 238 kts | 67° |
| 2026-05-03 20:46 | 23.03269 | -82.32399 | 3048 ft | 269 kts | 75° |
| 2026-05-03 20:47 | 23.03673 | -82.30428 | 3981 ft | 268 kts | 79° |
| 2026-05-03 20:47 | 23.03996 | -82.28396 | 4761 ft | 275 kts | 82° |
| 2026-05-03 20:47 | 23.04260 | -82.26337 | 5633 ft | 277 kts | 84° |
| 2026-05-03 20:47 | 23.04489 | -82.24240 | 6417 ft | 282 kts | 85° |
| 2026-05-03 20:48 | 23.04697 | -82.22103 | 7209 ft | 286 kts | 86° |
| 2026-05-03 20:48 | 23.04889 | -82.19963 | 7966 ft | 291 kts | 86° |
| 2026-05-03 20:48 | 23.05079 | -82.17752 | 8717 ft | 296 kts | 87° |
| 2026-05-03 20:48 | 23.05266 | -82.15515 | 9436 ft | 300 kts | 87° |
| 2026-05-03 20:49 | 23.05449 | -82.13250 | 10207 ft | 303 kts | 86° |
| 2026-05-03 20:49 | 23.05608 | -82.10888 | 10467 ft | 327 kts | 91° |
| 2026-05-03 20:49 | 23.05201 | -82.08376 | 10555 ft | 350 kts | 113° |
| 2026-05-03 20:49 | 23.03909 | -82.06143 | 11199 ft | 350 kts | 135° |
| 2026-05-03 20:50 | 23.01979 | -82.04558 | 11936 ft | 351 kts | 155° |
| 2026-05-03 20:50 | 22.99644 | -82.03812 | 12650 ft | 351 kts | 176° |
| 2026-05-03 20:50 | 22.97225 | -82.04010 | 13397 ft | 350 kts | 197° |
| 2026-05-03 20:50 | 22.94978 | -82.05026 | 14154 ft | 351 kts | 205° |
| 2026-05-03 20:51 | 22.92579 | -82.05673 | 14752 ft | 364 kts | 186° |
| 2026-05-03 20:51 | 22.90013 | -82.05413 | 14946 ft | 379 kts | 167° |
| 2026-05-03 20:51 | 22.87524 | -82.04401 | 15000 ft | 383 kts | 160° |
| 2026-05-03 20:51 | 22.85053 | -82.03293 | 15350 ft | 385 kts | 160° |
| 2026-05-03 20:52 | 22.82596 | -82.02218 | 16383 ft | 377 kts | 161° |
| 2026-05-03 20:52 | 22.80143 | -82.01163 | 17148 ft | 381 kts | 161° |
| 2026-05-03 20:52 | 22.77658 | -82.00119 | 17787 ft | 385 kts | 162° |
| 2026-05-03 20:52 | 22.75141 | -81.99075 | 18471 ft | 388 kts | 162° |
| 2026-05-03 20:53 | 22.72602 | -81.98032 | 19103 ft | 392 kts | 162° |
| 2026-05-03 20:53 | 22.70033 | -81.96982 | 19745 ft | 396 kts | 162° |
| 2026-05-03 20:53 | 22.67440 | -81.95929 | 20345 ft | 400 kts | 162° |
| 2026-05-03 20:53 | 22.64822 | -81.94870 | 20942 ft | 404 kts | 162° |
| 2026-05-03 20:54 | 22.62210 | -81.93814 | 21509 ft | 407 kts | 162° |
| 2026-05-03 20:54 | 22.56845 | -81.91653 | 22608 ft | 414 kts | 162° |
| 2026-05-03 20:54 | 22.54133 | -81.90562 | 23136 ft | 418 kts | 162° |
| 2026-05-03 20:55 | 22.51358 | -81.89448 | 23680 ft | 420 kts | 163° |
| 2026-05-03 20:55 | 22.48642 | -81.88358 | 24169 ft | 424 kts | 162° |
| 2026-05-03 20:55 | 22.45856 | -81.87239 | 24677 ft | 427 kts | 163° |
| 2026-05-03 20:55 | 22.43067 | -81.86120 | 25170 ft | 429 kts | 163° |
| 2026-05-03 20:56 | 22.40258 | -81.84994 | 25649 ft | 432 kts | 163° |
| 2026-05-03 20:56 | 22.37434 | -81.83862 | 26134 ft | 435 kts | 163° |
| 2026-05-03 20:56 | 22.35549 | -81.83108 | 26430 ft | 437 kts | 163° |
| 2026-05-03 20:56 | 22.32694 | -81.81965 | 26901 ft | 439 kts | 163° |
| 2026-05-03 20:57 | 22.29822 | -81.80815 | 27334 ft | 442 kts | 163° |
| 2026-05-03 20:57 | 22.26931 | -81.79659 | 27788 ft | 444 kts | 163° |
| 2026-05-03 20:57 | 22.24027 | -81.78497 | 28196 ft | 447 kts | 163° |
| 2026-05-03 20:57 | 22.21101 | -81.77328 | 28654 ft | 448 kts | 163° |
| 2026-05-03 20:58 | 22.18163 | -81.76154 | 29014 ft | 452 kts | 164° |
| 2026-05-03 20:58 | 22.15204 | -81.74973 | 29429 ft | 454 kts | 164° |
| 2026-05-03 20:58 | 22.12240 | -81.73789 | 29838 ft | 456 kts | 164° |
| 2026-05-03 20:58 | 22.09254 | -81.72598 | 30221 ft | 459 kts | 164° |
| 2026-05-03 20:59 | 22.06245 | -81.71398 | 30540 ft | 462 kts | 164° |
| 2026-05-03 20:59 | 22.03212 | -81.70189 | 30871 ft | 466 kts | 164° |
| 2026-05-03 20:59 | 22.00161 | -81.68974 | 31199 ft | 469 kts | 164° |
| 2026-05-03 20:59 | 21.97085 | -81.67750 | 31531 ft | 472 kts | 164° |
| 2026-05-03 21:00 | 21.94008 | -81.66525 | 31957 ft | 472 kts | 164° |
| 2026-05-03 21:00 | 21.91966 | -81.65711 | 32253 ft | 472 kts | 164° |
| 2026-05-03 21:00 | 21.87841 | -81.64070 | 32819 ft | 472 kts | 165° |
| 2026-05-03 21:00 | 21.84763 | -81.62846 | 33222 ft | 472 kts | 165° |
| 2026-05-03 21:01 | 21.81687 | -81.61623 | 33626 ft | 472 kts | 165° |
| 2026-05-03 21:01 | 21.80644 | -81.61209 | 33762 ft | 472 kts | 165° |